Astra — PB4187 — position and weather

sailwx.info

Track history (hours):
 
Tides and Currents Weather Stations Pressure Air Temp Water Temp Dewpoint Dewpoint Depression Visibility Wind Speed Wind Dir Waves Ship Positions

Astra

Last reported at 2015-Sep-01 09:20 UTC. Time now 2015-Sep-01 10:09 UTC.
Position N 48°41' E 007°55'.

Length 110 m; draft 2.8 m.

Type: Tanker. MMSI: 244650752.

Date/timePositionNaut miles runAvg speedWind from/ knotsBaromVisibWave heightAir tempDewpointWater temp
2015-Sep-01 09:20N 48°41' E 007°55'6 6.9
2015-Sep-01 08:31N 48°46' E 008°00'11 4.6
2015-Sep-01 06:13N 48°54' E 008°09'4 4.0
2015-Sep-01 05:07N 48°58' E 008°14'2 4.4
2015-Sep-01 04:33N 48°59' E 008°17'4 4.2
2015-Sep-01 03:33N 49°03' E 008°19'4 4.3
2015-Sep-01 02:33N 49°07' E 008°22'4 4.1
2015-Sep-01 01:33N 49°11' E 008°23'4 4.3
2015-Sep-01 00:33N 49°15' E 008°25'4 4.0
2015-Aug-31 23:33N 49°19' E 008°28'4 4.0
2015-Aug-31 22:33N 49°22' E 008°30'104 4.1
2015-Aug-30 21:11N 50°49' E 007°02'2 3.5
2015-Aug-30 20:32N 50°51' E 006°60'3 2.8
2015-Aug-30 19:33N 50°54' E 007°01'13 4.1
2015-Aug-30 16:20N 51°06' E 006°53'4 4.8
2015-Aug-30 15:33N 51°10' E 006°51'3 3.0
2015-Aug-30 14:33N 51°11' E 006°47'3 2.7
2015-Aug-30 13:33N 51°14' E 006°45'55 3.8
2015-Aug-29 23:05N 51°53' E 005°44'5 6.6
2015-Aug-29 22:20N 51°54' E 005°36'5 6.5
2015-Aug-29 21:33N 51°53' E 005°28'6 6.3
2015-Aug-29 20:33N 51°58' E 005°20'5 4.8
2015-Aug-29 19:33N 51°60' E 005°13'8 8.1
2015-Aug-29 18:33N 52°06' E 005°05'8 7.5
2015-Aug-29 17:33N 52°13' E 005°00'8 7.8
2015-Aug-29 16:33N 52°21' E 004°59'5 4.9
2015-Aug-29 15:33N 52°24' E 004°53'0 0.0
2015-Aug-29 14:33N 52°24' E 004°53'0 0.0
2015-Aug-29 13:33N 52°24' E 004°53'0 0.0
2015-Aug-29 12:34N 52°24' E 004°53'2 1.9
2015-Aug-29 11:34N 52°25' E 004°50'0 0.2
2015-Aug-29 10:34N 52°25' E 004°50'0 0.0
2015-Aug-29 09:33N 52°25' E 004°50'0 0.0
2015-Aug-29 08:34N 52°25' E 004°50'0 0.0
2015-Aug-29 07:33N 52°25' E 004°50'0 0.0
2015-Aug-29 06:33N 52°25' E 004°50'0 0.0
2015-Aug-29 05:34N 52°25' E 004°50'0 0.0
2015-Aug-29 04:33N 52°25' E 004°50'0 0.0
2015-Aug-29 03:33N 52°25' E 004°50'0 0.0
2015-Aug-29 02:33N 52°25' E 004°50'0 0.3
2015-Aug-29 01:33N 52°25' E 004°50'0 0.0
2015-Aug-29 00:33N 52°25' E 004°50'0 0.0
2015-Aug-28 23:33N 52°25' E 004°50'0 0.0
2015-Aug-28 22:33N 52°25' E 004°50'0 0.0
2015-Aug-28 21:33N 52°25' E 004°50'0 0.0
2015-Aug-28 20:33N 52°25' E 004°50'0 0.1
2015-Aug-28 19:34N 52°25' E 004°50'6 5.6
2015-Aug-28 18:33N 52°27' E 004°42'1 1.4
2015-Aug-28 17:33N 52°26' E 004°44'3 2.9
2015-Aug-28 16:33N 52°28' E 004°40'4 4.4
2015-Aug-28 15:33N 52°26' E 004°46'1 1.2
2015-Aug-28 14:34N 52°25' E 004°48'7 7.1
2015-Aug-28 13:34N 52°21' E 004°58'8 7.7
2015-Aug-28 12:34N 52°14' E 005°01'7 7.2
2015-Aug-28 11:34N 52°07' E 005°04'7 7.4
2015-Aug-28 10:34N 52°01' E 005°10'6 6.3
2015-Aug-28 09:33N 51°58' E 005°19'5 5.0
2015-Aug-28 08:32N 51°55' E 005°26'9 7.6
2015-Aug-28 07:19N 51°54' E 005°41'  
2015-Aug-25 01:29N 50°56' E 006°58'111 2.5
2015-Aug-23 05:19N 49°22' E 008°30'6 8.1
2015-Aug-23 04:34N 49°16' E 008°27'1010.2
2015-Aug-23 03:34N 49°07' E 008°22'19 8.5
2015-Aug-23 01:17N 48°50' E 008°07'6 7.5
2015-Aug-23 00:31N 48°46' E 008°01'6 6.3
2015-Aug-22 23:32N 48°41' E 007°55'65 5.0
2015-Aug-22 10:26N 47°38' E 007°33'4 4.8
2015-Aug-22 09:33N 47°34' E 007°35'  
Track history (hours):
 
Tides and Currents Weather Stations Pressure Air Temp Water Temp Dewpoint Dewpoint Depression Visibility Wind Speed Wind Dir Waves Ship Positions

Astra

Last reported at 2015-Sep-01 09:20 UTC. Time now 2015-Sep-01 10:09 UTC.
Position N 48°41' E 007°55'.

Length 110 m; draft 2.8 m.

Type: Tanker. MMSI: 244650752.

Date/timePositionNaut miles runAvg speedWind from/ knotsBaromVisibWave heightAir tempDewpointWater temp
2015-Sep-01 09:20N 48°41' E 007°55'6 6.9
2015-Sep-01 08:31N 48°46' E 008°00'11 4.6
2015-Sep-01 06:13N 48°54' E 008°09'4 4.0
2015-Sep-01 05:07N 48°58' E 008°14'2 4.4
2015-Sep-01 04:33N 48°59' E 008°17'4 4.2
2015-Sep-01 03:33N 49°03' E 008°19'4 4.3
2015-Sep-01 02:33N 49°07' E 008°22'4 4.1
2015-Sep-01 01:33N 49°11' E 008°23'4 4.3
2015-Sep-01 00:33N 49°15' E 008°25'4 4.0
2015-Aug-31 23:33N 49°19' E 008°28'4 4.0
2015-Aug-31 22:33N 49°22' E 008°30'104 4.1
2015-Aug-30 21:11N 50°49' E 007°02'2 3.5
2015-Aug-30 20:32N 50°51' E 006°60'3 2.8
2015-Aug-30 19:33N 50°54' E 007°01'13 4.1
2015-Aug-30 16:20N 51°06' E 006°53'4 4.8
2015-Aug-30 15:33N 51°10' E 006°51'3 3.0
2015-Aug-30 14:33N 51°11' E 006°47'3 2.7
2015-Aug-30 13:33N 51°14' E 006°45'55 3.8
2015-Aug-29 23:05N 51°53' E 005°44'5 6.6
2015-Aug-29 22:20N 51°54' E 005°36'5 6.5
2015-Aug-29 21:33N 51°53' E 005°28'6 6.3
2015-Aug-29 20:33N 51°58' E 005°20'5 4.8
2015-Aug-29 19:33N 51°60' E 005°13'8 8.1
2015-Aug-29 18:33N 52°06' E 005°05'8 7.5
2015-Aug-29 17:33N 52°13' E 005°00'8 7.8
2015-Aug-29 16:33N 52°21' E 004°59'5 4.9
2015-Aug-29 15:33N 52°24' E 004°53'0 0.0
2015-Aug-29 14:33N 52°24' E 004°53'0 0.0
2015-Aug-29 13:33N 52°24' E 004°53'0 0.0
2015-Aug-29 12:34N 52°24' E 004°53'2 1.9
2015-Aug-29 11:34N 52°25' E 004°50'0 0.2
2015-Aug-29 10:34N 52°25' E 004°50'0 0.0
2015-Aug-29 09:33N 52°25' E 004°50'0 0.0
2015-Aug-29 08:34N 52°25' E 004°50'0 0.0
2015-Aug-29 07:33N 52°25' E 004°50'0 0.0
2015-Aug-29 06:33N 52°25' E 004°50'0 0.0
2015-Aug-29 05:34N 52°25' E 004°50'0 0.0
2015-Aug-29 04:33N 52°25' E 004°50'0 0.0
2015-Aug-29 03:33N 52°25' E 004°50'0 0.0
2015-Aug-29 02:33N 52°25' E 004°50'0 0.3
2015-Aug-29 01:33N 52°25' E 004°50'0 0.0
2015-Aug-29 00:33N 52°25' E 004°50'0 0.0
2015-Aug-28 23:33N 52°25' E 004°50'0 0.0
2015-Aug-28 22:33N 52°25' E 004°50'0 0.0
2015-Aug-28 21:33N 52°25' E 004°50'0 0.0
2015-Aug-28 20:33N 52°25' E 004°50'0 0.1
2015-Aug-28 19:34N 52°25' E 004°50'6 5.6
2015-Aug-28 18:33N 52°27' E 004°42'1 1.4
2015-Aug-28 17:33N 52°26' E 004°44'3 2.9
2015-Aug-28 16:33N 52°28' E 004°40'4 4.4
2015-Aug-28 15:33N 52°26' E 004°46'1 1.2
2015-Aug-28 14:34N 52°25' E 004°48'7 7.1
2015-Aug-28 13:34N 52°21' E 004°58'8 7.7
2015-Aug-28 12:34N 52°14' E 005°01'7 7.2
2015-Aug-28 11:34N 52°07' E 005°04'7 7.4
2015-Aug-28 10:34N 52°01' E 005°10'6 6.3
2015-Aug-28 09:33N 51°58' E 005°19'5 5.0
2015-Aug-28 08:32N 51°55' E 005°26'9 7.6
2015-Aug-28 07:19N 51°54' E 005°41'  
2015-Aug-25 01:29N 50°56' E 006°58'111 2.5
2015-Aug-23 05:19N 49°22' E 008°30'6 8.1
2015-Aug-23 04:34N 49°16' E 008°27'1010.2
2015-Aug-23 03:34N 49°07' E 008°22'19 8.5
2015-Aug-23 01:17N 48°50' E 008°07'6 7.5
2015-Aug-23 00:31N 48°46' E 008°01'6 6.3
2015-Aug-22 23:32N 48°41' E 007°55'65 5.0
2015-Aug-22 10:26N 47°38' E 007°33'4 4.8
2015-Aug-22 09:33N 47°34' E 007°35'  

Dump ship's entire track history